Time;durP1;ratioP1;P1;durP2;ratioP2;P2;SDS_P1;SDS_P2;PMS_P1;PMS_P2;Temp;Humidity;BMP_temperature;BMP_pressure;BME280_temperature;BME280_humidity;BME280_pressure;Samples;Min_cycle;Max_cycle;Signal;HPM_P1;HPM_P2
2022/11/09 00:02:06;;;;;;;14.67;2.40;;;;;;;12.43;100.00;100414.97;5235092;28;20551;-74
2022/11/09 00:04:37;;;;;;;10.10;2.23;;;;;;;12.46;100.00;100414.78;5235938;28;20667;-73
2022/11/09 00:07:08;;;;;;;6.00;1.90;;;;;;;12.44;100.00;100419.31;5234039;28;20025;-73
2022/11/09 00:09:40;;;;;;;8.10;2.27;;;;;;;12.46;100.00;100420.84;5235474;28;20108;-73
2022/11/09 00:12:11;;;;;;;5.93;2.03;;;;;;;12.43;100.00;100412.34;5234758;28;20119;-73
2022/11/09 00:14:43;;;;;;;5.20;2.30;;;;;;;12.42;100.00;100408.06;5234608;28;20033;-74
2022/11/09 00:17:14;;;;;;;9.40;2.40;;;;;;;12.45;100.00;100413.09;5234304;28;20491;-73
2022/11/09 00:19:45;;;;;;;4.17;1.80;;;;;;;12.36;100.00;100411.16;5239550;28;20029;-73
2022/11/09 00:22:16;;;;;;;7.67;2.30;;;;;;;12.44;100.00;100419.31;5234806;28;20029;-73
2022/11/09 00:24:48;;;;;;;9.03;2.47;;;;;;;12.49;100.00;100416.31;5235473;28;20021;-74
2022/11/09 00:27:19;;;;;;;7.83;2.43;;;;;;;12.48;100.00;100412.84;5235504;28;20064;-73
2022/11/09 00:29:50;;;;;;;4.53;1.57;;;;;;;12.44;100.00;100406.16;5235384;28;20026;-74
2022/11/09 00:32:21;;;;;;;5.83;1.97;;;;;;;12.42;100.00;100398.41;5234595;28;20057;-73
2022/11/09 00:34:53;;;;;;;6.00;2.03;;;;;;;12.49;100.00;100414.53;5233396;28;20048;-73
2022/11/09 00:37:24;;;;;;;5.20;1.97;;;;;;;12.46;100.00;100394.56;5233867;28;20033;-73
2022/11/09 00:39:55;;;;;;;4.87;2.00;;;;;;;12.56;100.00;100410.50;5233855;28;20037;-72
2022/11/09 00:42:27;;;;;;;8.40;1.80;;;;;;;12.57;100.00;100396.41;5234925;28;20109;-73
2022/11/09 00:44:58;;;;;;;8.07;2.10;;;;;;;12.50;100.00;100395.19;5234263;28;20057;-74
2022/11/09 00:47:29;;;;;;;7.73;3.00;;;;;;;12.58;100.00;100387.56;5233660;28;20079;-73
2022/11/09 00:50:00;;;;;;;5.90;2.27;;;;;;;12.50;100.00;100392.56;5233133;28;20114;-73
2022/11/09 00:52:32;;;;;;;7.37;1.80;;;;;;;12.60;100.00;100397.13;5232306;28;20098;-74
2022/11/09 00:55:03;;;;;;;11.97;2.97;;;;;;;12.61;100.00;100389.13;5234602;28;20029;-73
2022/11/09 00:57:35;;;;;;;7.40;2.33;;;;;;;12.53;100.00;100384.44;5234396;28;20029;-73
2022/11/09 01:00:06;;;;;;;9.37;2.37;;;;;;;12.59;100.00;100393.66;5234098;28;20045;-73
2022/11/09 01:02:38;;;;;;;7.57;2.77;;;;;;;12.57;100.00;100391.16;5234226;28;20056;-73
2022/11/09 01:05:09;;;;;;;10.40;2.77;;;;;;;12.58;100.00;100405.13;5232173;28;20227;-74
2022/11/09 01:07:40;;;;;;;6.60;2.27;;;;;;;12.57;100.00;100401.66;5233714;28;20404;-73
2022/11/09 01:10:11;;;;;;;8.63;2.13;;;;;;;12.50;100.00;100400.44;5231645;28;20046;-74
2022/11/09 01:12:43;;;;;;;6.73;2.00;;;;;;;12.65;100.00;100408.97;5234010;28;20038;-74
2022/11/09 01:15:14;;;;;;;7.53;2.20;;;;;;;12.58;100.00;100413.00;5233006;28;20026;-74
2022/11/09 01:17:46;;;;;;;8.03;2.40;;;;;;;12.58;100.00;100407.75;5234077;28;20036;-73
2022/11/09 01:20:18;;;;;;;9.00;2.10;;;;;;;12.57;100.00;100417.41;5234035;28;20029;-74
2022/11/09 01:22:49;;;;;;;5.77;2.07;;;;;;;12.49;100.00;100421.56;5215037;28;20040;-74
2022/11/09 01:25:20;;;;;;;6.93;1.90;;;;;;;12.66;100.00;100434.28;5233391;28;20080;-74
2022/11/09 01:27:51;;;;;;;5.53;1.93;;;;;;;12.59;100.00;100422.56;5233100;28;20104;-74
2022/11/09 01:30:23;;;;;;;7.23;2.53;;;;;;;12.44;100.00;100421.94;5233894;28;20025;-73
2022/11/09 01:32:54;;;;;;;5.73;2.60;;;;;;;12.57;100.00;100427.06;5233845;28;20045;-73
2022/11/09 01:35:25;;;;;;;6.97;1.93;;;;;;;12.53;100.00;100431.72;5233179;28;20029;-75
2022/11/09 01:37:56;;;;;;;5.87;2.07;;;;;;;12.49;100.00;100435.56;5232375;28;20528;-73
2022/11/09 01:40:29;;;;;;;5.07;1.63;;;;;;;12.49;100.00;100430.28;5233066;28;20120;-73
2022/11/09 01:43:19;;;;;;;6.30;2.13;;;;;;;12.50;100.00;100431.97;5233584;28;20033;-73
2022/11/09 01:46:02;;;;;;;7.83;3.17;;;;;;;12.44;100.00;100433.25;5219547;28;20511;-73
2022/11/09 01:48:45;;;;;;;5.50;1.40;;;;;;;12.45;100.00;100434.94;5233977;28;20041;-73
2022/11/09 01:51:25;;;;;;;8.53;2.50;;;;;;;12.43;100.00;100431.59;5264189;28;20033;-74
2022/11/09 01:54:02;;;;;;;7.87;1.77;;;;;;;12.44;100.00;100425.38;5265038;28;20666;-73
2022/11/09 01:56:34;;;;;;;7.23;2.10;;;;;;;12.41;100.00;100422.97;5232691;28;20037;-74
2022/11/09 01:59:12;;;;;;;6.03;1.70;;;;;;;12.42;100.00;100415.94;5232823;28;20411;-73
2022/11/09 02:01:44;;;;;;;11.60;2.97;;;;;;;12.36;100.00;100408.53;5231820;28;20045;-75
2022/11/09 02:04:27;;;;;;;5.87;2.17;;;;;;;12.41;100.00;100430.03;5233179;28;20473;-74
2022/11/09 02:09:54;;;;;;;8.23;2.07;;;;;;;12.36;100.00;100425.09;5286996;28;20052;-74
2022/11/09 02:12:28;;;;;;;9.20;2.40;;;;;;;12.31;100.00;100430.72;5294538;28;20028;-74
2022/11/09 02:15:03;;;;;;;5.15;1.70;;;;;;;12.32;100.00;100435.00;5275745;28;20409;-74
2022/11/09 02:17:34;;;;;;;;;;;;;;;12.35;100.00;100428.69;5293832;28;20066;-74
2022/11/09 02:20:10;;;;;;;9.87;1.87;;;;;;;12.26;100.00;100424.13;5294427;28;19916;-74
2022/11/09 02:22:41;;;;;;;12.23;2.77;;;;;;;12.26;100.00;100429.38;5292286;28;20425;-74
2022/11/09 02:25:14;;;;;;;6.27;2.63;;;;;;;12.24;100.00;100432.09;5293464;28;20016;-75
2022/11/09 02:27:46;;;;;;;6.33;1.80;;;;;;;12.22;100.00;100428.75;5291838;28;20074;-74
2022/11/09 02:30:19;;;;;;;7.43;1.70;;;;;;;12.21;100.00;100434.97;5294082;28;20024;-73
2022/11/09 02:32:50;;;;;;;7.40;1.80;;;;;;;12.20;100.00;100449.88;5291946;28;20024;-73
2022/11/09 02:35:22;;;;;;;6.40;2.00;;;;;;;12.21;100.00;100443.69;5293876;28;20025;-72
2022/11/09 02:37:53;;;;;;;10.73;2.83;;;;;;;12.30;100.00;100455.31;5294582;28;20101;-73
2022/11/09 02:40:36;;;;;;;15.70;3.53;;;;;;;12.27;100.00;100442.38;5296881;28;20149;-74
2022/11/09 02:43:09;;;;;;;12.13;2.60;;;;;;;12.26;100.00;100430.22;5297701;28;20021;-73
2022/11/09 02:45:40;;;;;;;11.00;2.67;;;;;;;12.35;100.00;100428.69;5296698;28;20020;-74
2022/11/09 02:48:12;;;;;;;7.97;2.37;;;;;;;12.31;100.00;100422.84;5298012;28;20020;-73
2022/11/09 02:50:43;;;;;;;11.60;3.67;;;;;;;12.27;100.00;100420.56;5297076;28;20024;-74
2022/11/09 02:53:14;;;;;;;9.83;2.70;;;;;;;12.35;100.00;100428.69;5296396;28;20107;-74
2022/11/09 02:55:45;;;;;;;9.77;2.97;;;;;;;12.36;100.00;100411.97;5298028;28;20485;-73
2022/11/09 02:58:17;;;;;;;8.70;2.10;;;;;;;12.39;100.00;100388.09;5280065;28;20480;-73
2022/11/09 03:00:48;;;;;;;11.47;1.90;;;;;;;12.39;100.00;100395.16;5297893;28;20386;-73
2022/11/09 03:03:19;;;;;;;8.77;2.10;;;;;;;12.48;100.00;100410.22;5297869;28;20020;-74
2022/11/09 03:05:50;;;;;;;11.43;2.90;;;;;;;12.45;100.00;100418.34;5296181;28;20020;-74
2022/11/09 03:08:22;;;;;;;9.73;2.83;;;;;;;12.43;100.00;100425.47;5298357;28;20040;-73
2022/11/09 03:10:53;;;;;;;9.00;2.47;;;;;;;12.45;100.00;100423.59;5302338;28;20027;-72
2022/11/09 03:13:25;;;;;;;9.80;2.27;;;;;;;12.37;100.00;100441.72;5301598;28;20027;-73
2022/11/09 03:15:56;;;;;;;11.43;3.20;;;;;;;12.43;100.00;100449.13;5301942;28;20031;-73
2022/11/09 03:18:28;;;;;;;11.50;2.10;;;;;;;12.39;100.00;100450.31;5301720;28;20020;-74
2022/11/09 03:21:03;;;;;;;11.27;2.83;;;;;;;12.41;100.00;100462.38;5300932;28;20047;-73
2022/11/09 03:23:34;;;;;;;9.57;2.20;;;;;;;12.40;100.00;100467.75;5301943;28;20106;-72
2022/11/09 03:26:06;;;;;;;13.23;3.07;;;;;;;12.40;100.00;100465.97;5300933;28;20546;-73
2022/11/09 03:28:38;;;;;;;7.70;2.93;;;;;;;12.36;100.00;100464.50;5301494;28;20704;-72
2022/11/09 03:31:09;;;;;;;8.20;2.17;;;;;;;12.34;100.00;100464.63;5301811;28;20545;-73
2022/11/09 03:33:40;;;;;;;8.77;2.37;;;;;;;12.34;100.00;100464.63;5302249;28;20145;-73
2022/11/09 03:36:12;;;;;;;9.13;2.40;;;;;;;12.30;100.00;100468.44;5304613;28;20028;-73
2022/11/09 03:38:43;;;;;;;10.37;2.43;;;;;;;12.36;100.00;100463.69;5303459;28;20132;-74
2022/11/09 03:41:14;;;;;;;12.57;3.63;;;;;;;12.26;100.00;100466.97;5301411;28;20082;-73
2022/11/09 03:43:45;;;;;;;9.57;2.27;;;;;;;12.26;100.00;100476.63;5301458;28;20035;-73
2022/11/09 03:46:17;;;;;;;14.60;3.13;;;;;;;12.28;100.00;100479.97;5300864;28;20027;-73
2022/11/09 03:48:48;;;;;;;13.50;2.67;;;;;;;12.22;100.00;100476.00;5300638;28;20024;-74
2022/11/09 03:51:19;;;;;;;9.97;2.40;;;;;;;12.28;100.00;100488.72;5299911;28;20129;-74
2022/11/09 03:53:50;;;;;;;9.43;2.37;;;;;;;12.27;100.00;100491.44;5300907;28;20028;-72
2022/11/09 03:56:22;;;;;;;11.67;2.37;;;;;;;12.27;100.00;100502.78;5282380;28;20024;-74
2022/11/09 03:58:53;;;;;;;10.77;2.47;;;;;;;12.18;100.00;100495.59;5297596;28;20111;-74
2022/11/09 04:01:24;;;;;;;9.27;2.10;;;;;;;12.20;100.00;100501.56;5287363;28;20020;-74
2022/11/09 04:03:56;;;;;;;10.77;2.37;;;;;;;12.14;100.00;100492.34;5299806;28;20032;-74
2022/11/09 04:06:27;;;;;;;12.30;2.70;;;;;;;12.18;100.00;100495.59;5280768;28;20452;-73
2022/11/09 04:08:58;;;;;;;13.00;2.97;;;;;;;12.12;100.00;100509.13;5281453;28;20493;-74
2022/11/09 04:11:29;;;;;;;13.70;2.53;;;;;;;12.14;100.00;100512.50;5299538;28;20048;-73
2022/11/09 04:14:01;;;;;;;10.70;3.17;;;;;;;12.09;100.00;100521.56;5299469;28;20024;-74
2022/11/09 04:16:32;;;;;;;11.67;2.90;;;;;;;12.05;100.00;100527.06;5299220;28;20035;-73
2022/11/09 04:19:03;;;;;;;13.80;3.30;;;;;;;12.03;100.00;100521.09;5299504;28;20024;-73
2022/11/09 04:21:35;;;;;;;9.67;2.17;;;;;;;12.01;100.00;100521.22;5298663;28;20031;-74
2022/11/09 04:24:06;;;;;;;9.57;3.03;;;;;;;12.06;100.00;100523.53;5299556;28;20016;-74
2022/11/09 04:26:37;;;;;;;14.70;2.97;;;;;;;11.96;100.00;100523.31;5299506;28;20035;-73
2022/11/09 04:29:09;;;;;;;9.30;2.37;;;;;;;12.00;100.00;100537.91;5298970;28;20478;-74
2022/11/09 04:31:40;;;;;;;9.37;2.10;;;;;;;11.94;100.00;100536.56;5298970;28;20028;-75
2022/11/09 04:34:12;;;;;;;11.90;2.73;;;;;;;11.88;100.00;100536.16;5281364;28;20497;-73
2022/11/09 04:36:43;;;;;;;12.97;2.57;;;;;;;12.00;100.00;100539.69;5297303;28;20690;-74
2022/11/09 04:39:14;;;;;;;13.47;3.03;;;;;;;11.96;100.00;100539.91;5280759;28;20386;-74
2022/11/09 04:41:46;;;;;;;8.07;2.03;;;;;;;11.96;100.00;100544.31;5298758;28;20036;-73
2022/11/09 04:44:17;;;;;;;10.93;2.33;;;;;;;11.94;100.00;100543.56;5300543;28;20036;-74
2022/11/09 04:46:48;;;;;;;8.53;2.43;;;;;;;11.95;100.00;100547.91;5300801;28;20090;-74
2022/11/09 04:49:20;;;;;;;14.20;2.37;;;;;;;11.98;100.00;100552.94;5299379;28;20129;-73
2022/11/09 04:51:51;;;;;;;8.47;2.30;;;;;;;11.96;100.00;100549.56;5297323;28;20164;-74
2022/11/09 04:54:22;;;;;;;14.53;3.37;;;;;;;11.93;100.00;100545.38;5295921;28;20035;-74
2022/11/09 04:56:54;;;;;;;9.63;2.47;;;;;;;11.95;100.00;100556.63;5279565;28;20039;-74
2022/11/09 04:59:25;;;;;;;10.47;2.87;;;;;;;11.93;100.00;100550.63;5280485;28;20464;-74
2022/11/09 05:01:56;;;;;;;11.57;2.43;;;;;;;11.89;100.00;100546.53;5296648;28;20406;-74
2022/11/09 05:04:27;;;;;;;13.50;3.27;;;;;;;11.85;100.00;100545.91;5263690;28;20055;-74
2022/11/09 05:06:59;;;;;;;12.13;2.83;;;;;;;11.89;100.00;100537.81;5297218;28;20032;-74
2022/11/09 05:09:30;;;;;;;13.77;3.63;;;;;;;11.86;100.00;100550.22;5299943;28;20070;-74
2022/11/09 05:12:01;;;;;;;12.70;3.27;;;;;;;11.77;100.00;100529.03;5301724;28;20681;-74
2022/11/09 05:14:32;;;;;;;10.53;2.80;;;;;;;11.78;100.00;100536.78;5297643;28;20028;-73
2022/11/09 05:17:04;;;;;;;10.27;2.20;;;;;;;11.76;100.00;100527.38;5297727;28;20483;-74
2022/11/09 05:19:35;;;;;;;7.00;2.33;;;;;;;11.77;100.00;100540.38;5298092;28;20475;-74
2022/11/09 05:24:56;;;;;;;11.80;2.50;;;;;;;11.70;100.00;100534.72;5297167;28;20036;-74
2022/11/09 05:27:27;;;;;;;9.97;2.90;;;;;;;11.67;100.00;100519.19;5297249;28;20028;-74
2022/11/09 05:29:58;;;;;;;13.50;2.43;;;;;;;11.62;100.00;100516.06;5278052;28;20063;-74
2022/11/09 05:32:30;;;;;;;11.70;2.70;;;;;;;11.58;100.00;100528.53;5296373;28;20043;-73
2022/11/09 05:35:01;;;;;;;12.27;3.23;;;;;;;11.60;100.00;100534.53;5278055;28;20034;-74
2022/11/09 05:37:32;;;;;;;9.30;2.70;;;;;;;11.59;100.00;100542.50;5295282;28;20500;-74
2022/11/09 05:40:05;;;;;;;11.20;3.83;;;;;;;11.60;100.00;100533.69;5296414;28;20032;-73
2022/11/09 05:42:40;;;;;;;12.70;2.97;;;;;;;11.54;100.00;100537.56;5296605;28;20034;-74
2022/11/09 05:45:14;;;;;;;10.77;2.72;;;;;;;11.50;100.00;100533.47;5295848;28;20043;-74
2022/11/09 05:47:46;;;;;;;;;;;;;;;11.66;100.00;100542.91;5296753;28;20031;-74
2022/11/09 05:50:17;;;;;;;12.60;2.77;;;;;;;11.55;100.00;100541.03;5296889;28;19927;-74
2022/11/09 05:52:48;;;;;;;10.33;2.47;;;;;;;11.53;100.00;100533.28;5277905;28;20046;-74
2022/11/09 05:55:20;;;;;;;9.30;2.33;;;;;;;11.55;100.00;100541.88;5296218;28;20028;-74
2022/11/09 05:57:51;;;;;;;13.23;3.37;;;;;;;11.52;100.00;100543.88;5296722;28;20389;-74
2022/11/09 06:00:22;;;;;;;10.13;2.63;;;;;;;11.42;100.00;100536.63;5277413;28;20477;-74
2022/11/09 06:03:01;;;;;;;11.77;2.90;;;;;;;11.48;100.00;100530.13;5295390;28;20382;-74
2022/11/09 06:05:33;;;;;;;10.27;2.63;;;;;;;11.44;100.00;100536.50;5294783;28;20898;-74
2022/11/09 06:08:11;;;;;;;11.53;2.37;;;;;;;11.50;100.00;100538.72;5295738;28;20119;-74
2022/11/09 06:10:43;;;;;;;12.40;2.60;;;;;;;11.48;100.00;100546.69;5269675;28;20474;-75
2022/11/09 06:13:14;;;;;;;11.87;3.03;;;;;;;11.31;100.00;100547.00;5295499;28;20020;-75
2022/11/09 06:15:52;;;;;;;10.50;2.87;;;;;;;11.44;100.00;100550.47;5295788;28;20042;-74
2022/11/09 06:18:24;;;;;;;10.87;2.57;;;;;;;11.40;100.00;100550.78;5295779;28;20347;-74
2022/11/09 06:20:58;;;;;;;14.47;3.03;;;;;;;11.40;100.00;100556.03;5294384;28;20067;-76
2022/11/09 06:23:30;;;;;;;17.57;3.40;;;;;;;11.36;100.00;100556.22;5277812;28;20024;-72
2022/11/09 06:26:06;;;;;;;11.97;2.90;;;;;;;11.37;100.00;100559.69;5295238;28;20304;-74
2022/11/09 06:28:38;;;;;;;12.53;3.10;;;;;;;11.36;100.00;100552.78;5281233;28;20043;-73
2022/11/09 06:31:15;;;;;;;14.43;2.90;;;;;;;11.38;100.00;100567.44;5295906;28;20532;-73
2022/11/09 06:33:46;;;;;;;14.87;2.57;;;;;;;11.35;100.00;100567.66;5274731;28;20663;-74
2022/11/09 06:36:17;;;;;;;10.50;3.40;;;;;;;11.28;100.00;100561.16;5293309;28;20038;-74
2022/11/09 06:38:50;;;;;;;12.53;3.30;;;;;;;11.33;100.00;100568.69;5294773;28;20728;-73
2022/11/09 06:41:21;;;;;;;15.13;2.50;;;;;;;11.23;100.00;100574.59;5275577;28;20028;-73
2022/11/09 06:43:53;;;;;;;15.87;3.70;;;;;;;11.27;100.00;100567.34;5291246;28;20708;-74
2022/11/09 06:46:24;;;;;;;12.13;2.67;;;;;;;11.29;100.00;100573.34;5299850;28;20043;-74
2022/11/09 06:48:55;;;;;;;11.50;2.93;;;;;;;11.28;100.00;100568.16;5299562;28;20088;-73
2022/11/09 06:51:26;;;;;;;13.67;2.70;;;;;;;11.27;100.00;100575.22;5298590;28;20103;-73
2022/11/09 06:53:58;;;;;;;6.77;2.37;;;;;;;11.17;100.00;100563.66;5299858;28;20042;-73
2022/11/09 06:56:29;;;;;;;15.90;2.90;;;;;;;11.18;100.00;100583.69;5299790;28;20073;-73
2022/11/09 06:59:00;;;;;;;15.30;2.93;;;;;;;11.25;100.00;100582.34;5274742;28;20028;-73
2022/11/09 07:01:31;;;;;;;12.33;2.40;;;;;;;11.24;100.00;100578.88;5296682;28;20399;-72
2022/11/09 07:04:03;;;;;;;14.83;3.67;;;;;;;11.19;100.00;100580.16;5295669;28;20474;-72
2022/11/09 07:06:39;;;;;;;8.80;2.40;;;;;;;11.24;100.00;100580.66;5296368;28;20024;-73
2022/11/09 07:09:11;;;;;;;12.40;2.37;;;;;;;11.32;100.00;100593.25;5298361;28;20130;-73
2022/11/09 07:11:42;;;;;;;15.07;3.77;;;;;;;11.28;100.00;100592.63;5288262;28;20089;-74
2022/11/09 07:14:13;;;;;;;13.97;3.10;;;;;;;11.25;100.00;100593.66;5297551;28;20048;-72
2022/11/09 07:16:44;;;;;;;12.80;3.60;;;;;;;11.28;100.00;100597.00;5298665;28;20040;-74
2022/11/09 07:19:16;;;;;;;11.63;3.03;;;;;;;11.30;100.00;100595.13;5298844;28;20016;-73
2022/11/09 07:21:47;;;;;;;13.17;2.80;;;;;;;11.31;100.00;100610.75;5296866;28;20040;-73
2022/11/09 07:24:18;;;;;;;18.27;3.70;;;;;;;11.23;100.00;100606.03;5297265;28;20032;-77
2022/11/09 07:26:50;;;;;;;12.07;2.70;;;;;;;11.31;100.00;100607.31;5298483;28;20039;-73
2022/11/09 07:29:21;;;;;;;12.93;2.80;;;;;;;11.35;100.00;100614.88;5298575;28;20024;-74
2022/11/09 07:31:52;;;;;;;13.23;3.50;;;;;;;11.36;100.00;100611.28;5299544;28;20575;-83
2022/11/09 07:34:23;;;;;;;10.87;2.60;;;;;;;11.32;100.00;100612.44;5286646;28;20050;-79
2022/11/09 07:36:55;;;;;;;4.67;1.90;;;;;;;11.36;100.00;100615.72;5298111;28;20070;-77
2022/11/09 07:39:27;;;;;;;9.27;2.27;;;;;;;11.32;100.00;100615.06;5301401;28;20070;-80
2022/11/09 07:41:58;;;;;;;9.80;2.47;;;;;;;11.40;100.00;100617.16;5291756;28;20631;-78
2022/11/09 07:44:30;;;;;;;11.23;2.80;;;;;;;11.39;100.00;100620.75;5273398;28;20071;-74
2022/11/09 07:47:01;;;;;;;12.20;3.23;;;;;;;11.35;100.00;100604.38;5290621;28;20469;-73
2022/11/09 07:49:32;;;;;;;10.97;2.93;;;;;;;11.38;100.00;100608.56;5295884;28;20028;-75
2022/11/09 07:52:04;;;;;;;9.33;2.53;;;;;;;11.50;100.00;100617.41;5292838;28;20024;-74
2022/11/09 07:54:36;;;;;;;9.67;2.80;;;;;;;11.44;100.00;100612.56;5292428;28;20043;-74
2022/11/09 07:57:08;;;;;;;14.97;3.30;;;;;;;11.50;100.00;100610.34;5292744;28;20027;-75
2022/11/09 07:59:39;;;;;;;12.23;2.13;;;;;;;11.59;100.00;100627.25;5276116;28;20462;-74
2022/11/09 08:02:10;;;;;;;13.00;2.63;;;;;;;11.58;100.00;100628.22;5290975;28;20093;-74
2022/11/09 08:04:42;;;;;;;12.33;2.60;;;;;;;11.62;100.00;100626.22;5290275;28;20028;-74
2022/11/09 08:07:13;;;;;;;9.77;2.90;;;;;;;11.66;100.00;100634.72;5270539;28;20020;-74
2022/11/09 08:09:44;;;;;;;9.90;2.40;;;;;;;11.60;100.00;100617.63;5291909;28;20044;-74
2022/11/09 08:12:15;;;;;;;13.10;2.67;;;;;;;11.70;100.00;100630.94;5295447;28;20035;-74
2022/11/09 08:14:47;;;;;;;13.60;2.80;;;;;;;11.79;100.00;100632.09;5297680;28;20031;-75
2022/11/09 08:17:18;;;;;;;11.03;2.40;;;;;;;11.75;100.00;100634.09;5298560;28;20149;-75
2022/11/09 08:19:49;;;;;;;9.40;2.80;;;;;;;11.75;100.00;100634.09;5297302;28;20027;-76
2022/11/09 08:22:20;;;;;;;12.00;2.23;;;;;;;11.66;100.00;100627.69;5297145;28;20042;-75
2022/11/09 08:24:52;;;;;;;9.50;2.97;;;;;;;11.71;100.00;100640.50;5297990;28;20047;-75
2022/11/09 08:27:23;;;;;;;9.37;2.53;;;;;;;11.65;100.00;100626.00;5298566;28;20035;-75
2022/11/09 08:29:54;;;;;;;9.00;2.40;;;;;;;11.83;100.00;100654.56;5298157;28;20153;-76
2022/11/09 08:32:25;;;;;;;9.43;2.10;;;;;;;11.86;100.00;100654.34;5297557;28;20107;-76
2022/11/09 08:34:57;;;;;;;13.77;2.87;;;;;;;11.89;100.00;100662.00;5296712;28;20039;-77
2022/11/09 08:37:28;;;;;;;11.50;3.33;;;;;;;11.83;100.00;100649.31;5296941;28;20024;-73
2022/11/09 08:39:59;;;;;;;11.77;2.33;;;;;;;11.95;100.00;100663.38;5296466;28;20114;-74
2022/11/09 08:42:31;;;;;;;16.30;2.30;;;;;;;11.99;100.00;100670.06;5297163;28;20028;-74
2022/11/09 08:45:03;;;;;;;10.77;2.70;;;;;;;12.05;100.00;100674.91;5295655;28;20032;-76
2022/11/09 08:47:34;;;;;;;13.23;3.80;;;;;;;12.06;100.00;100645.09;5296705;28;20040;-76
2022/11/09 08:50:07;;;;;;;12.07;2.63;;;;;;;12.17;100.00;100664.53;5295841;28;20028;-76
2022/11/09 08:52:38;;;;;;;11.33;2.50;;;;;;;12.19;100.00;100670.50;5297393;28;20417;-76
2022/11/09 08:55:10;;;;;;;10.50;2.27;;;;;;;12.28;100.00;100658.53;5296790;28;20035;-75
2022/11/09 08:57:41;;;;;;;10.93;2.30;;;;;;;12.33;100.00;100662.53;5279403;28;20415;-75
2022/11/09 09:00:13;;;;;;;8.27;2.23;;;;;;;12.33;100.00;100664.31;5295887;28;20448;-76
2022/11/09 09:02:44;;;;;;;11.70;3.37;;;;;;;12.32;100.00;100660.81;5294907;28;20082;-76
2022/11/09 09:05:16;;;;;;;14.00;2.37;;;;;;;12.42;100.00;100660.19;5296154;28;20024;-76
2022/11/09 09:07:47;;;;;;;10.33;3.00;;;;;;;12.41;100.00;100656.72;5294940;28;20797;-75
2022/11/09 09:10:19;;;;;;;10.63;3.50;;;;;;;12.46;100.00;100670.34;5296682;28;20039;-76
2022/11/09 09:12:50;;;;;;;8.50;2.47;;;;;;;12.52;100.00;100669.09;5274361;28;20033;-76
2022/11/09 09:15:22;;;;;;;8.00;2.33;;;;;;;12.58;100.00;100675.72;5293591;28;20023;-75
2022/11/09 09:17:53;;;;;;;14.70;2.83;;;;;;;12.68;100.00;100673.25;5295451;28;20020;-76
2022/11/09 09:20:25;;;;;;;9.63;2.23;;;;;;;13.29;100.00;100671.50;5274190;28;20044;-75
2022/11/09 09:22:58;;;;;;;10.13;2.47;;;;;;;13.82;100.00;100669.41;5295236;28;20030;-76
2022/11/09 09:25:29;;;;;;;11.40;2.40;;;;;;;13.85;100.00;100671.78;5293781;28;20399;-76
2022/11/09 09:28:00;;;;;;;8.33;2.30;;;;;;;14.18;100.00;100675.41;5296222;28;20051;-76
2022/11/09 09:30:31;;;;;;;11.40;2.73;;;;;;;14.39;100.00;100678.16;5292766;28;20111;-76
2022/11/09 09:33:03;;;;;;;6.80;2.33;;;;;;;14.10;100.00;100678.63;5289801;28;20016;-76
2022/11/09 09:35:34;;;;;;;13.47;2.97;;;;;;;14.14;100.00;100680.06;5294770;28;20478;-76
2022/11/09 09:38:05;;;;;;;17.10;3.07;;;;;;;14.00;100.00;100682.94;5293188;28;20035;-76
2022/11/09 09:40:42;;;;;;;9.23;2.70;;;;;;;14.21;100.00;100684.84;5294339;28;20038;-77
2022/11/09 09:43:23;;;;;;;13.43;2.57;;;;;;;14.02;100.00;100679.22;5275428;28;20094;-76
2022/11/09 09:45:55;;;;;;;10.13;2.30;;;;;;;14.01;100.00;100687.25;5256763;28;20378;-77
2022/11/09 09:48:38;;;;;;;11.37;3.27;;;;;;;14.10;100.00;100683.88;5275281;28;20078;-76
2022/11/09 09:51:31;;;;;;;9.57;2.60;;;;;;;14.07;100.00;100685.94;5273448;28;20025;-76
2022/11/09 09:54:15;;;;;;;7.00;2.17;;;;;;;14.18;100.00;100695.63;5273308;28;20103;-76
2022/11/09 09:56:49;;;;;;;10.80;2.65;;;;;;;13.96;100.00;100666.56;5273684;28;20040;-76
2022/11/09 09:59:40;;;;;;;8.52;2.88;;;;;;;14.26;100.00;100706.44;5274961;28;20039;-75
2022/11/09 10:02:26;;;;;;;11.10;2.67;;;;;;;14.24;100.00;100716.25;5274072;28;20064;-75
2022/11/09 10:05:00;;;;;;;7.80;2.30;;;;;;;14.12;100.00;100712.78;5256222;28;20028;-74
2022/11/09 10:08:05;;;;;;;11.57;2.85;;;;;;;14.12;100.00;100712.78;5274149;28;20177;-74
2022/11/09 10:11:07;;;;;;;9.68;2.90;;;;;;;14.34;100.00;100722.47;5256770;28;20126;-74
2022/11/09 10:13:54;;;;;;;11.60;2.90;;;;;;;14.35;100.00;100718.00;5268881;28;20064;-74
2022/11/09 10:16:43;;;;;;;10.33;2.17;;;;;;;14.47;100.00;100706.53;5274569;28;20063;-74
2022/11/09 10:19:53;;;;;;;9.27;2.60;;;;;;;14.34;100.00;100719.84;5289090;28;20039;-77
2022/11/09 10:22:45;;;;;;;8.67;2.10;;;;;;;14.44;100.00;100719.94;5267204;28;20044;-75
2022/11/09 10:25:21;;;;;;;11.37;2.37;;;;;;;14.44;100.00;100725.22;5295587;28;20035;-75
2022/11/09 10:27:59;;;;;;;10.03;2.40;;;;;;;14.34;100.00;100711.09;5292028;28;20046;-75
2022/11/09 10:30:32;;;;;;;11.40;2.23;;;;;;;14.39;100.00;100724.72;5295877;28;20386;-76
2022/11/09 10:33:09;;;;;;;11.97;2.93;;;;;;;14.40;100.00;100726.41;5295079;28;20418;-75
2022/11/09 10:35:51;;;;;;;10.60;2.00;;;;;;;14.31;100.00;100717.44;5294866;28;20165;-76
2022/11/09 10:38:48;;;;;;;9.17;2.37;;;;;;;14.34;100.00;100719.00;5292038;28;20486;-76
2022/11/09 10:41:36;;;;;;;9.43;2.33;;;;;;;14.30;100.00;100717.53;5291830;28;20505;-77
2022/11/09 10:44:14;;;;;;;11.90;2.90;;;;;;;14.33;100.00;100727.88;5295195;28;20466;-76
2022/11/09 10:47:04;;;;;;;11.13;2.87;;;;;;;14.36;100.00;100731.09;5295174;28;20344;-75
2022/11/09 10:49:37;;;;;;;11.13;2.57;;;;;;;14.30;100.00;100721.03;5276029;28;20043;-75
2022/11/09 10:52:40;;;;;;;7.00;1.97;;;;;;;14.35;100.00;100733.81;5295206;28;20111;-75
2022/11/09 10:55:24;;;;;;;9.80;2.27;;;;;;;14.28;100.00;100739.59;5278901;28;20044;-74
2022/11/09 10:58:10;;;;;;;10.30;2.10;;;;;;;14.22;100.00;100737.44;5275932;28;20051;-74
2022/11/09 11:00:57;;;;;;;9.03;2.03;;;;;;;14.35;100.00;100744.34;5294589;28;20024;-74
2022/11/09 11:03:32;;;;;;;10.40;2.30;;;;;;;14.20;100.00;100746.41;5294560;28;20031;-76
2022/11/09 11:06:22;;;;;;;10.20;2.30;;;;;;;14.17;100.00;100744.00;5293288;28;20023;-76
2022/11/09 11:08:56;;;;;;;11.30;2.70;;;;;;;14.20;100.00;100749.03;5294261;28;20063;-76
2022/11/09 11:11:32;;;;;;;7.82;2.47;;;;;;;14.18;100.00;100743.88;5276241;28;20077;-76
2022/11/09 11:14:13;;;;;;;12.07;2.33;;;;;;;14.13;100.00;100751.31;5276571;28;20047;-76
2022/11/09 11:16:45;;;;;;;9.23;2.90;;;;;;;14.04;100.00;100747.56;5294024;28;20028;-75
2022/11/09 11:19:39;;;;;;;13.83;2.43;;;;;;;14.08;100.00;100753.44;5293984;28;20040;-75
2022/11/09 11:22:10;;;;;;;9.03;2.87;;;;;;;13.94;100.00;100757.13;5275035;28;20066;-75
2022/11/09 11:24:44;;;;;;;11.43;2.50;;;;;;;13.96;100.00;100757.84;5294554;28;20115;-75
2022/11/09 11:27:26;;;;;;;13.68;2.53;;;;;;;14.06;100.00;100753.56;5294724;28;20016;-76
2022/11/09 11:30:05;;;;;;;10.73;3.00;;;;;;;13.94;100.00;100757.97;5295018;28;20412;-75
2022/11/09 11:32:36;;;;;;;13.27;3.10;;;;;;;13.85;100.00;100753.41;5298361;28;20035;-74
2022/11/09 11:35:29;;;;;;;14.13;2.90;;;;;;;14.05;100.00;100769.50;5297441;28;20026;-74
2022/11/09 11:38:19;;;;;;;10.50;1.87;;;;;;;13.92;100.00;100773.03;5293914;28;20050;-75
2022/11/09 11:41:38;;;;;;;14.00;3.50;;;;;;;13.83;100.00;100766.69;5295134;28;20051;-75
2022/11/09 11:44:29;;;;;;;12.70;2.53;;;;;;;13.81;100.00;100755.41;5298056;28;20028;-74
2022/11/09 11:47:23;;;;;;;6.93;2.10;;;;;;;13.93;100.00;100766.81;5278435;28;20020;-74
2022/11/09 11:50:20;;;;;;;8.77;1.90;;;;;;;13.90;100.00;100746.00;5292762;28;20030;-75
2022/11/09 11:53:13;;;;;;;13.73;2.33;;;;;;;14.06;100.00;100764.09;5297581;28;20016;-74